createdAt,value
2022-11-24T00:01:21.954Z,-145.97
2022-11-24T00:03:59.109Z,-145.97
2022-11-24T00:06:27.723Z,-145.97
2022-11-24T00:08:56.654Z,-145.97
2022-11-24T00:11:29.514Z,-145.97
2022-11-24T00:13:58.528Z,-145.97
2022-11-24T00:16:31.480Z,-145.97
2022-11-24T00:19:00.789Z,-145.97
2022-11-24T00:21:30.509Z,-145.97
2022-11-24T00:24:01.923Z,-145.97
2022-11-24T00:26:34.024Z,-145.97
2022-11-24T00:29:05.907Z,-145.97
2022-11-24T00:31:38.864Z,-145.97
2022-11-24T00:34:10.950Z,-145.97
2022-11-24T00:36:39.987Z,-145.97
2022-11-24T00:39:12.748Z,-145.97
2022-11-24T00:41:41.525Z,-145.97
2022-11-24T00:44:09.585Z,-145.97
2022-11-24T00:46:37.668Z,-145.97
2022-11-24T00:49:06.585Z,-145.97
2022-11-24T00:51:34.245Z,-145.97
2022-11-24T00:54:02.767Z,-145.97
2022-11-24T00:56:31.384Z,-145.97
2022-11-24T00:58:59.410Z,-145.97
2022-11-24T01:01:28.943Z,-145.97
2022-11-24T01:03:56.923Z,-145.97
2022-11-24T01:06:26.829Z,-145.97
2022-11-24T01:08:56.430Z,-145.97
2022-11-24T01:11:29.888Z,-145.97
2022-11-24T01:13:59.943Z,-145.97
2022-11-24T01:16:30.484Z,-145.97
2022-11-24T01:18:58.193Z,-145.97
2022-11-24T01:21:25.927Z,-145.97
2022-11-24T01:23:53.656Z,-145.97
2022-11-24T01:26:25.443Z,-145.97
2022-11-24T01:28:57.776Z,-145.97
2022-11-24T01:31:26.830Z,-145.97
2022-11-24T01:33:54.960Z,-145.97
2022-11-24T01:36:23.043Z,-145.97
2022-11-24T01:38:50.950Z,-145.97
2022-11-24T01:41:24.460Z,-145.97
2022-11-24T01:43:53.573Z,-145.97
2022-11-24T01:46:49.896Z,-145.97
2022-11-24T01:49:22.217Z,-145.97
2022-11-24T01:51:58.253Z,-145.97
2022-11-24T01:54:31.220Z,-145.97
2022-11-24T01:57:02.858Z,-145.97
2022-11-24T01:59:31.434Z,-145.97
2022-11-24T02:01:59.148Z,-145.97
2022-11-24T02:04:32.345Z,-145.97
2022-11-24T02:07:02.122Z,-145.97
2022-11-24T02:09:39.590Z,-145.97
2022-11-24T02:12:07.602Z,-145.97
2022-11-24T02:14:38.479Z,-145.97
2022-11-24T02:17:05.931Z,-145.97
2022-11-24T02:19:55.304Z,-145.97
2022-11-24T02:22:28.249Z,-145.97
2022-11-24T02:25:04.696Z,-145.97
2022-11-24T02:27:32.185Z,-145.97
2022-11-24T02:29:59.840Z,-145.97
2022-11-24T02:32:28.674Z,-145.97
2022-11-24T02:35:06.135Z,-145.97
2022-11-24T02:37:33.614Z,-145.97
2022-11-24T02:40:01.268Z,-145.97
2022-11-24T02:42:32.953Z,-145.97
2022-11-24T02:45:02.023Z,-145.97
2022-11-24T02:47:29.390Z,-145.97
2022-11-24T02:49:57.363Z,-145.97
2022-11-24T02:52:25.816Z,-145.97
2022-11-24T02:54:53.539Z,-145.97
2022-11-24T02:57:22.886Z,-145.97
2022-11-24T02:59:50.779Z,-145.97
2022-11-24T03:02:18.147Z,-145.97
2022-11-24T03:04:46.006Z,-145.97
2022-11-24T03:07:13.395Z,-145.97
2022-11-24T03:09:41.046Z,-145.97
2022-11-24T03:12:08.439Z,-145.97
2022-11-24T03:14:36.276Z,-145.97
2022-11-24T03:17:04.467Z,-145.97
2022-11-24T03:19:32.397Z,-145.97
2022-11-24T03:22:00.000Z,-145.97
2022-11-24T03:24:27.673Z,-145.97
2022-11-24T03:26:54.988Z,-145.97
2022-11-24T03:29:23.360Z,-145.97
2022-11-24T03:31:50.737Z,-145.97
2022-11-24T03:34:18.425Z,-145.97
2022-11-24T03:36:45.745Z,-145.97
2022-11-24T03:39:13.820Z,-145.97
2022-11-24T03:41:41.159Z,-145.97
2022-11-24T03:44:11.711Z,-145.97
2022-11-24T03:46:39.267Z,-145.97
2022-11-24T03:49:06.977Z,-145.97
2022-11-24T03:51:34.369Z,-145.97
2022-11-24T03:54:02.034Z,-145.97
2022-11-24T03:56:29.395Z,-145.97
2022-11-24T03:58:57.067Z,-145.97
2022-11-24T04:01:24.519Z,-145.97
2022-11-24T04:03:52.194Z,-145.97
2022-11-24T04:06:19.557Z,-145.97
2022-11-24T04:08:47.207Z,-145.97
2022-11-24T04:11:34.578Z,-145.97
2022-11-24T04:14:02.239Z,-145.97
2022-11-24T04:16:29.790Z,-145.97
2022-11-24T04:18:57.720Z,-145.97
2022-11-24T04:21:25.044Z,-145.97
2022-11-24T04:23:52.697Z,-145.97
2022-11-24T04:26:20.074Z,-145.97
2022-11-24T04:28:47.809Z,-145.97
2022-11-24T04:31:15.200Z,-145.97
2022-11-24T04:33:43.007Z,-145.97
2022-11-24T04:36:10.464Z,-145.97
2022-11-24T04:39:25.774Z,-145.97
2022-11-24T04:41:25.419Z,-145.97
2022-11-24T04:43:53.194Z,-145.97
2022-11-24T04:46:20.646Z,-145.97
2022-11-24T04:48:48.374Z,-145.97
2022-11-24T04:51:15.921Z,-145.97
2022-11-24T04:53:43.567Z,-145.97
2022-11-24T04:56:10.972Z,-145.97
2022-11-24T04:58:38.688Z,-145.97
2022-11-24T05:01:09.786Z,-145.97
2022-11-24T05:03:40.692Z,-145.97
2022-11-24T05:06:09.223Z,-145.97
2022-11-24T05:08:36.860Z,-145.97
2022-11-24T05:11:06.359Z,-145.97
2022-11-24T05:13:34.674Z,-145.97
2022-11-24T05:16:02.136Z,-145.97
2022-11-24T05:18:29.836Z,-145.97
2022-11-24T05:20:58.978Z,-145.97
2022-11-24T05:23:27.168Z,-145.97
2022-11-24T05:25:54.448Z,-145.97
2022-11-24T05:28:22.038Z,-145.97
2022-11-24T05:30:49.319Z,-145.97
2022-11-24T05:33:22.858Z,-145.97
2022-11-24T05:35:51.117Z,-145.97
2022-11-24T05:38:19.280Z,-145.97
2022-11-24T05:40:46.742Z,-145.97
2022-11-24T05:43:16.298Z,-145.97
2022-11-24T05:45:45.100Z,-145.97
2022-11-24T05:48:14.558Z,-145.97
2022-11-24T05:50:42.276Z,-145.97
2022-11-24T05:53:12.807Z,-145.97
2022-11-24T05:55:41.119Z,-145.97
2022-11-24T05:58:10.294Z,-145.97
2022-11-24T06:00:38.003Z,-145.97
2022-11-24T06:03:05.665Z,-145.97
2022-11-24T06:05:33.137Z,-145.97
2022-11-24T06:08:00.961Z,-145.97
2022-11-24T06:10:28.964Z,-145.97
2022-11-24T06:12:56.765Z,-145.97
2022-11-24T06:15:23.925Z,-145.97
2022-11-24T06:17:55.940Z,-145.97
2022-11-24T06:20:29.777Z,-145.97
2022-11-24T06:23:00.191Z,-145.97
2022-11-24T06:25:28.526Z,-145.97
2022-11-24T06:27:56.268Z,-145.97
2022-11-24T06:30:23.492Z,-145.97
2022-11-24T06:32:55.226Z,-145.97
2022-11-24T06:35:22.687Z,-145.97
2022-11-24T08:27:19.994Z,0.55
2022-11-24T08:29:47.888Z,0.65
2022-11-24T08:32:21.985Z,0.84
2022-11-24T08:34:49.886Z,0.92
2022-11-24T08:37:17.639Z,0.98
2022-11-24T08:39:45.821Z,0.98
2022-11-24T08:42:12.971Z,1.01
2022-11-24T08:44:40.532Z,1.10
2022-11-24T08:47:07.726Z,1.05
2022-11-24T08:49:35.355Z,0.95
2022-11-24T08:52:02.572Z,0.97
2022-11-24T08:54:31.157Z,0.97
2022-11-24T08:56:59.213Z,0.96
2022-11-24T08:59:27.228Z,0.86
2022-11-24T09:01:55.047Z,0.81
2022-11-24T09:04:22.753Z,0.80
2022-11-24T09:06:50.042Z,0.79
2022-11-24T09:09:18.147Z,0.73
2022-11-24T09:11:45.317Z,0.57
2022-11-24T09:14:12.945Z,0.55
2022-11-24T09:16:40.294Z,0.50
2022-11-24T09:19:08.319Z,0.65
2022-11-24T09:21:38.998Z,0.71
2022-11-24T09:24:07.809Z,0.55
2022-11-24T09:26:37.244Z,0.64
2022-11-24T09:29:08.128Z,0.64
2022-11-24T09:31:36.703Z,0.57
2022-11-24T09:34:07.349Z,0.58
2022-11-24T09:36:35.565Z,0.58
2022-11-24T09:39:03.787Z,0.57
2022-11-24T09:41:46.231Z,0.59
2022-11-24T09:44:25.884Z,0.53
2022-11-24T09:46:56.328Z,0.53
2022-11-24T09:49:37.632Z,0.54
2022-11-24T09:52:11.076Z,0.56
2022-11-24T09:54:54.102Z,0.53
2022-11-24T09:57:24.903Z,0.42
2022-11-24T09:59:52.606Z,0.40
2022-11-24T10:02:19.878Z,0.42
2022-11-24T10:04:47.745Z,0.55
2022-11-24T10:07:28.031Z,0.75
2022-11-24T10:10:01.569Z,0.78
2022-11-24T10:13:06.517Z,0.90
2022-11-24T10:15:48.348Z,0.86
2022-11-24T10:18:41.999Z,0.97
2022-11-24T10:21:31.650Z,1.03
2022-11-24T10:24:36.735Z,1.14
2022-11-24T10:27:18.649Z,1.19
2022-11-24T10:29:51.632Z,1.30
2022-11-24T10:32:24.352Z,1.32
2022-11-24T10:34:51.937Z,1.31
2022-11-24T10:37:37.790Z,1.38
2022-11-24T10:40:41.007Z,1.40
2022-11-24T10:43:11.196Z,1.52
2022-11-24T10:45:39.696Z,1.62
2022-11-24T10:48:22.006Z,1.76
2022-11-24T10:50:49.513Z,1.79
2022-11-24T10:53:22.628Z,1.82
2022-11-24T10:55:58.033Z,1.95
2022-11-24T10:58:36.018Z,1.82
2022-11-24T11:01:14.437Z,1.83
2022-11-24T11:03:53.754Z,1.70
2022-11-24T11:06:22.324Z,1.60
2022-11-24T11:08:49.819Z,1.54
2022-11-24T11:11:22.272Z,1.71
2022-11-24T11:14:03.176Z,1.71
2022-11-24T11:17:06.858Z,1.74
2022-11-24T11:19:54.184Z,1.70
2022-11-24T11:22:26.753Z,1.72
2022-11-24T11:25:12.728Z,1.81
2022-11-24T11:27:41.220Z,1.56
2022-11-24T11:36:16.113Z,1.41
2022-11-24T11:38:45.265Z,1.37
2022-11-24T11:41:34.306Z,1.42
2022-11-24T11:44:22.335Z,1.33
2022-11-24T11:46:50.002Z,1.25
2022-11-24T11:49:17.276Z,1.32
2022-11-24T11:51:56.659Z,1.40
2022-11-24T11:54:33.350Z,1.35
2022-11-24T11:57:51.181Z,1.42
2022-11-24T12:00:22.496Z,1.34
2022-11-24T12:03:08.643Z,1.46
2022-11-24T12:05:54.183Z,1.32
2022-11-24T12:09:17.884Z,1.53
2022-11-24T12:11:46.600Z,1.55
2022-11-24T12:14:39.331Z,1.60
2022-11-24T12:17:29.846Z,1.44
2022-11-24T12:20:19.065Z,1.52
2022-11-24T12:23:11.554Z,1.50
2022-11-24T12:25:46.716Z,1.51
2022-11-24T12:28:38.485Z,1.57
2022-11-24T12:31:08.409Z,1.44
2022-11-24T12:34:01.151Z,1.55
2022-11-24T12:36:50.742Z,1.68
2022-11-24T12:39:34.315Z,1.68
2022-11-24T12:42:10.192Z,1.65
2022-11-24T12:45:02.228Z,1.54
2022-11-24T12:47:52.608Z,1.73
2022-11-24T12:50:24.505Z,1.73
2022-11-24T12:53:03.442Z,1.81
2022-11-24T12:55:33.931Z,1.73
2022-11-24T12:58:15.020Z,1.97
2022-11-24T13:01:19.096Z,2.05
2022-11-24T13:03:59.124Z,1.99
2022-11-24T13:06:44.439Z,1.96
2022-11-24T13:09:15.460Z,1.84
2022-11-24T13:11:54.460Z,2.01
2022-11-24T13:14:38.601Z,1.99
2022-11-24T13:17:43.542Z,2.01
2022-11-24T13:20:20.449Z,1.87
2022-11-24T13:23:01.508Z,1.97
2022-11-24T13:25:34.765Z,1.87
2022-11-24T13:28:06.803Z,1.86
2022-11-24T13:30:34.820Z,1.77
2022-11-24T13:33:16.170Z,1.90
2022-11-24T13:36:04.617Z,1.81
2022-11-24T13:38:44.884Z,1.81
2022-11-24T13:41:32.784Z,1.82
2022-11-24T13:44:16.456Z,1.83
2022-11-24T13:47:07.390Z,1.81
2022-11-24T13:49:43.230Z,1.70
2022-11-24T13:52:36.949Z,1.77
2022-11-24T13:55:23.774Z,1.60
2022-11-24T13:57:56.566Z,1.57
2022-11-24T14:00:32.303Z,1.53
2022-11-24T14:03:06.747Z,1.38
2022-11-24T14:05:39.313Z,1.48
2022-11-24T14:08:24.635Z,1.48
2022-11-24T14:10:56.502Z,1.41
2022-11-24T14:13:28.654Z,1.33
2022-11-24T14:16:17.648Z,1.49
2022-11-24T14:18:48.100Z,1.43
2022-11-24T14:21:29.130Z,1.48
2022-11-24T14:24:01.930Z,1.46
2022-11-24T14:26:36.556Z,1.36
2022-11-24T14:29:23.558Z,1.41
2022-11-24T14:31:56.714Z,1.36
2022-11-24T14:34:35.842Z,1.29
2022-11-24T14:37:03.508Z,1.18
2022-11-24T14:39:40.150Z,1.18
2022-11-24T14:42:18.384Z,1.30
2022-11-24T14:44:54.438Z,1.18
2022-11-24T14:47:32.472Z,1.28
2022-11-24T14:50:13.333Z,1.20
2022-11-24T14:52:56.808Z,1.32
2022-11-24T14:55:32.730Z,1.35
2022-11-24T14:58:00.307Z,1.28
2022-11-24T15:00:33.755Z,1.31
2022-11-24T15:03:01.091Z,1.23
2022-11-24T15:05:55.059Z,1.44
2022-11-24T15:08:24.707Z,1.33
2022-11-24T15:11:03.153Z,1.41
2022-11-24T15:13:37.459Z,1.36
2022-11-24T15:16:16.503Z,1.32
2022-11-24T15:18:47.470Z,1.45
2022-11-24T15:21:19.448Z,1.40
2022-11-24T15:24:22.885Z,1.53
2022-11-24T15:26:50.633Z,1.30
2022-11-24T15:29:17.885Z,1.31
2022-11-24T15:31:50.949Z,1.32
2022-11-24T15:34:19.874Z,1.27
2022-11-24T15:36:47.480Z,1.29
2022-11-24T15:39:14.821Z,1.21
2022-11-24T15:41:42.514Z,1.18
2022-11-24T15:44:10.565Z,1.33
2022-11-24T15:46:41.069Z,1.39
2022-11-24T15:49:08.604Z,1.40
2022-11-24T15:51:38.858Z,1.37
2022-11-24T15:54:07.385Z,1.32
2022-11-24T15:56:36.760Z,1.47
2022-11-24T15:59:04.816Z,1.38
2022-11-24T16:01:34.709Z,1.48
2022-11-24T16:04:02.930Z,1.40
2022-11-24T16:06:30.632Z,1.25
2022-11-24T16:08:58.551Z,1.38
2022-11-24T16:11:26.393Z,1.35
2022-11-24T16:13:54.470Z,1.30
2022-11-24T16:16:23.731Z,1.32
2022-11-24T16:18:51.178Z,1.34
2022-11-24T16:21:19.650Z,1.33
2022-11-24T16:23:47.988Z,1.32
2022-11-24T16:26:16.626Z,1.30
2022-11-24T16:28:46.016Z,1.20
2022-11-24T16:31:16.428Z,1.26
2022-11-24T16:33:45.677Z,1.34
2022-11-24T16:36:14.440Z,1.23
2022-11-24T16:38:42.554Z,1.20
2022-11-24T16:41:10.765Z,1.12
2022-11-24T16:43:39.235Z,1.14
2022-11-24T16:46:17.512Z,1.27
2022-11-24T16:48:46.723Z,1.20
2022-11-24T16:51:15.582Z,1.11
2022-11-24T16:53:43.452Z,1.07
2022-11-24T16:56:11.281Z,1.06
2022-11-24T16:58:40.417Z,1.23
2022-11-24T17:01:11.232Z,1.18
2022-11-24T17:03:39.388Z,1.11
2022-11-24T17:06:10.495Z,1.12
2022-11-24T17:08:40.837Z,0.99
2022-11-24T17:11:13.952Z,1.01
2022-11-24T17:13:43.086Z,0.99
2022-11-24T17:16:13.125Z,1.09
2022-11-24T17:18:41.679Z,1.05
2022-11-24T17:21:15.312Z,1.14
2022-11-24T17:23:42.834Z,0.99
2022-11-24T17:26:17.795Z,1.14
2022-11-24T17:28:45.388Z,0.96
2022-11-24T17:31:18.982Z,1.10
2022-11-24T17:33:46.583Z,0.94
2022-11-24T17:36:14.348Z,0.95
2022-11-24T17:38:41.960Z,0.95
2022-11-24T17:41:10.295Z,0.99
2022-11-24T17:43:38.015Z,0.97
2022-11-24T17:46:06.531Z,1.04
2022-11-24T17:48:35.961Z,1.08
2022-11-24T17:51:10.334Z,1.10
2022-11-24T17:53:39.340Z,1.01
2022-11-24T17:56:08.704Z,1.02
2022-11-24T17:58:41.269Z,0.98
2022-11-24T18:01:12.596Z,1.06
2022-11-24T18:03:41.305Z,1.04
2022-11-24T18:06:14.168Z,1.14
2022-11-24T18:08:44.126Z,1.12
2022-11-24T18:11:14.944Z,1.15
2022-11-24T18:13:58.390Z,1.10
2022-11-24T18:16:30.534Z,1.13
2022-11-24T18:19:08.293Z,1.03
2022-11-24T18:21:38.893Z,1.07
2022-11-24T18:24:08.049Z,1.10
2022-11-24T18:26:35.824Z,1.06
2022-11-24T18:29:03.361Z,1.00
2022-11-24T18:31:32.455Z,0.89
2022-11-24T18:34:00.136Z,0.97
2022-11-24T18:36:30.629Z,0.94
2022-11-24T18:39:04.862Z,0.92
2022-11-24T18:41:32.705Z,0.95
2022-11-24T18:44:08.249Z,1.06
2022-11-24T18:46:36.532Z,1.12
2022-11-24T18:49:04.837Z,0.98
2022-11-24T18:51:32.878Z,0.99
2022-11-24T18:54:02.261Z,0.93
2022-11-24T18:56:31.345Z,1.04
2022-11-24T18:58:59.415Z,0.94
2022-11-24T19:01:29.010Z,1.07
2022-11-24T19:03:59.443Z,1.06
2022-11-24T19:06:35.722Z,1.16
2022-11-24T19:09:09.305Z,1.13
2022-11-24T19:11:39.615Z,1.05
2022-11-24T19:14:08.602Z,0.97
2022-11-24T19:16:36.530Z,1.00
2022-11-24T19:19:04.625Z,1.07
2022-11-24T19:21:35.606Z,1.14
2022-11-24T19:24:05.878Z,1.16
2022-11-24T19:26:37.956Z,1.17
2022-11-24T19:29:07.585Z,1.13
2022-11-24T19:31:36.454Z,1.13
2022-11-24T19:34:06.101Z,1.09
2022-11-24T19:36:34.093Z,1.07
2022-11-24T19:39:04.939Z,1.10
2022-11-24T19:41:34.077Z,1.05
2022-11-24T19:44:01.435Z,1.08
2022-11-24T19:46:30.412Z,1.17
2022-11-24T19:49:01.830Z,1.26
2022-11-24T19:51:35.238Z,1.20
2022-11-24T19:54:04.315Z,1.28
2022-11-24T19:56:36.725Z,1.18
2022-11-24T19:59:07.697Z,1.18
2022-11-24T20:01:40.292Z,1.25
2022-11-24T20:04:15.071Z,1.18
2022-11-24T20:06:45.426Z,1.26
2022-11-24T20:09:15.055Z,1.26
2022-11-24T20:11:43.570Z,1.17
2022-11-24T20:14:13.478Z,1.29
2022-11-24T20:16:41.671Z,1.24
2022-11-24T20:19:12.726Z,1.32
2022-11-24T20:21:48.032Z,1.27
2022-11-24T20:24:19.640Z,1.34
2022-11-24T20:26:53.893Z,1.31
2022-11-24T20:29:21.625Z,1.15
2022-11-24T20:31:52.047Z,1.24
2022-11-24T20:34:21.646Z,1.14
2022-11-24T20:36:52.940Z,1.07
2022-11-24T20:39:29.577Z,1.28
2022-11-24T20:41:57.766Z,1.11
2022-11-24T20:44:27.857Z,1.09
2022-11-24T20:46:58.427Z,1.10
2022-11-24T20:49:26.892Z,1.11
2022-11-24T20:51:55.243Z,1.01
2022-11-24T20:54:23.771Z,1.01
2022-11-24T20:56:51.714Z,0.96
2022-11-24T20:59:22.714Z,1.05
2022-11-24T21:01:52.293Z,0.98
2022-11-24T21:04:22.817Z,1.00
2022-11-24T21:06:50.714Z,0.88
2022-11-24T21:09:18.251Z,0.94
2022-11-24T21:11:46.517Z,0.91
2022-11-24T21:14:14.289Z,0.88
2022-11-24T21:16:43.459Z,0.89
2022-11-24T21:19:13.851Z,0.87
2022-11-24T21:21:43.000Z,0.87
2022-11-24T21:24:14.470Z,1.00
2022-11-24T21:26:43.459Z,0.92
2022-11-24T21:29:17.296Z,1.02
2022-11-24T21:31:45.164Z,0.90
2022-11-24T21:34:15.434Z,0.97
2022-11-24T21:36:45.300Z,0.98
2022-11-24T21:39:14.225Z,1.07
2022-11-24T21:41:42.478Z,1.06
2022-11-24T21:44:12.518Z,1.19
2022-11-24T21:46:44.987Z,1.12
2022-11-24T21:49:19.565Z,1.14
2022-11-24T21:51:47.681Z,1.19
2022-11-24T21:54:14.833Z,1.18
2022-11-24T21:56:42.487Z,1.13
2022-11-24T21:59:09.805Z,1.13
2022-11-24T22:01:37.421Z,1.07
2022-11-24T22:04:05.039Z,1.06
2022-11-24T22:06:33.438Z,0.91
2022-11-24T22:09:00.731Z,1.03
2022-11-24T22:11:28.484Z,0.94
2022-11-24T22:13:55.722Z,0.94
2022-11-24T22:16:24.994Z,1.11
2022-11-24T22:18:52.655Z,1.04
2022-11-24T22:21:23.998Z,1.10
2022-11-24T22:23:55.163Z,1.24
2022-11-24T22:26:24.256Z,1.32
2022-11-24T22:28:52.127Z,1.16
2022-11-24T22:31:25.092Z,1.34
2022-11-24T22:33:53.656Z,1.26
2022-11-24T22:36:23.095Z,1.12
2022-11-24T22:39:03.386Z,1.28
2022-11-24T22:41:33.443Z,1.20
2022-11-24T22:44:00.846Z,1.10
2022-11-24T22:46:30.563Z,1.21
2022-11-24T22:49:01.817Z,1.21
2022-11-24T22:51:32.592Z,1.12
2022-11-24T22:54:02.719Z,1.09
2022-11-24T22:56:33.683Z,0.95
2022-11-24T22:59:02.219Z,1.05
2022-11-24T23:01:31.271Z,0.99
2022-11-24T23:03:58.934Z,0.98
2022-11-24T23:06:29.011Z,1.00
2022-11-24T23:08:57.758Z,1.08
2022-11-24T23:11:34.922Z,1.11
2022-11-24T23:14:05.697Z,1.13
2022-11-24T23:16:33.508Z,1.07
2022-11-24T23:19:00.742Z,1.14
2022-11-24T23:21:30.462Z,1.25
2022-11-24T23:24:00.343Z,1.19
2022-11-24T23:26:30.615Z,1.28
2022-11-24T23:28:57.980Z,1.13
2022-11-24T23:31:30.313Z,1.26
2022-11-24T23:34:02.961Z,1.35
2022-11-24T23:36:31.550Z,1.23
2022-11-24T23:39:06.786Z,1.19
2022-11-24T23:41:35.265Z,0.90
2022-11-24T23:44:02.740Z,0.90
2022-11-24T23:46:31.066Z,1.01
2022-11-24T23:48:58.751Z,0.94
2022-11-24T23:51:31.841Z,1.16
2022-11-24T23:54:00.430Z,1.17
2022-11-24T23:56:32.767Z,1.16
2022-11-24T23:59:02.195Z,1.22
